Time;durP1;ratioP1;P1;durP2;ratioP2;P2;SDS_P1;SDS_P2;PMS_P1;PMS_P2;Temp;Humidity;BMP_temperature;BMP_pressure;BME280_temperature;BME280_humidity;BME280_pressure;Samples;Min_cycle;Max_cycle;Signal;HPM_P1;HPM_P2
2023/03/02 00:02:16;;;;;;;14.52;12.65;;;;;;;2.19;58.27;102284.75;5034580;28;20100;-57
2023/03/02 00:04:48;;;;;;;12.93;11.63;;;;;;;2.20;57.96;102283.84;5034663;28;20053;-57
2023/03/02 00:07:18;;;;;;;12.95;11.65;;;;;;;2.16;58.00;102286.53;5033917;28;20468;-57
2023/03/02 00:09:44;;;;;;;12.63;11.40;;;;;;;2.10;57.93;102287.44;5034284;28;20064;-56
2023/03/02 00:12:10;;;;;;;12.70;11.40;;;;;;;2.01;57.90;102288.34;5034458;28;20480;-57
2023/03/02 00:14:36;;;;;;;14.80;12.75;;;;;;;1.92;58.14;102277.03;5033964;28;20029;-56
2023/03/02 00:17:02;;;;;;;13.73;12.38;;;;;;;1.93;58.08;102292.72;5033915;28;20033;-56
2023/03/02 00:19:28;;;;;;;15.25;12.13;;;;;;;1.86;58.12;102296.28;5034442;28;20027;-56
2023/03/02 00:21:54;;;;;;;13.85;12.05;;;;;;;1.89;58.20;102288.41;5031400;28;20496;-57
2023/03/02 00:24:19;;;;;;;14.15;12.57;;;;;;;1.81;58.22;102287.53;5032546;28;20037;-56
2023/03/02 00:26:45;;;;;;;14.57;11.05;;;;;;;1.87;57.98;102290.13;5033761;28;20026;-57
2023/03/02 00:29:10;;;;;;;13.10;11.52;;;;;;;1.90;58.49;102284.00;5032141;28;20022;-57
2023/03/02 00:31:38;;;;;;;13.75;12.25;;;;;;;1.81;58.89;102285.78;5034381;28;20033;-57
2023/03/02 00:34:04;;;;;;;13.05;11.88;;;;;;;1.79;58.56;102284.94;5033901;28;20488;-57
2023/03/02 00:36:29;;;;;;;13.07;11.70;;;;;;;1.73;58.38;102286.69;5033084;28;20056;-58
2023/03/02 00:38:56;;;;;;;12.65;11.50;;;;;;;1.80;58.43;102296.31;5034163;28;20108;-56
2023/03/02 00:41:22;;;;;;;13.75;11.90;;;;;;;1.85;58.48;102289.25;5033735;28;20487;-56
2023/03/02 00:43:48;;;;;;;16.08;13.10;;;;;;;1.67;59.44;102290.19;5032567;28;20025;-57
2023/03/02 00:46:19;;;;;;;12.85;11.60;;;;;;;1.68;58.89;102289.34;5033981;28;20487;-57
2023/03/02 00:48:45;;;;;;;13.25;11.93;;;;;;;1.63;59.00;102288.47;5034003;28;20025;-58
2023/03/02 00:51:11;;;;;;;13.35;12.00;;;;;;;1.65;58.62;102291.97;5034093;28;20522;-58
2023/03/02 00:53:37;;;;;;;12.93;11.60;;;;;;;1.73;58.73;102287.56;5034278;28;20108;-58
2023/03/02 00:56:04;;;;;;;12.40;11.10;;;;;;;1.60;58.84;102283.25;5032288;28;20108;-58
2023/03/02 00:58:30;;;;;;;13.38;11.63;;;;;;;1.46;59.46;102290.25;5031983;28;20040;-57
2023/03/02 01:00:56;;;;;;;12.85;11.50;;;;;;;1.56;59.08;102289.38;5034599;28;20029;-57
2023/03/02 01:03:22;;;;;;;12.82;11.57;;;;;;;1.70;58.79;102284.06;5051625;28;20031;-57
2023/03/02 01:05:55;;;;;;;13.25;11.90;;;;;;;1.68;59.11;102278.00;5038025;28;20104;-58
2023/03/02 01:08:21;;;;;;;12.55;11.20;;;;;;;1.75;59.13;102283.19;5047413;28;20040;-57
2023/03/02 01:10:47;;;;;;;12.10;10.95;;;;;;;1.79;59.09;102278.78;5052746;28;20025;-57
2023/03/02 01:13:12;;;;;;;11.75;10.43;;;;;;;1.86;58.74;102277.91;5042858;28;20023;-56
2023/03/02 01:15:37;;;;;;;12.27;11.00;;;;;;;1.73;59.00;102271.81;5033149;28;20061;-57
2023/03/02 01:18:03;;;;;;;12.55;10.95;;;;;;;1.72;58.55;102256.97;5030731;28;20033;-57
2023/03/02 01:20:28;;;;;;;13.05;11.75;;;;;;;1.67;58.86;102268.34;5029937;28;20052;-58
2023/03/02 01:22:54;;;;;;;13.90;11.57;;;;;;;1.75;58.66;102263.97;5033559;28;20362;-58
2023/03/02 01:25:19;;;;;;;12.32;11.07;;;;;;;1.70;58.72;102263.97;5031206;28;20029;-57
2023/03/02 01:27:45;;;;;;;12.65;11.35;;;;;;;1.84;58.51;102257.81;5031993;28;20025;-57
2023/03/02 01:30:12;;;;;;;13.50;11.23;;;;;;;1.76;58.43;102268.31;5034053;28;20072;-58
2023/03/02 01:32:37;;;;;;;12.55;11.10;;;;;;;1.91;58.39;102259.50;5028264;28;20396;-58
2023/03/02 01:35:02;;;;;;;12.93;11.50;;;;;;;1.79;59.04;102260.44;5028604;28;20081;-56
2023/03/02 01:37:28;;;;;;;13.82;11.75;;;;;;;1.56;59.19;102229.06;5033258;28;20119;-57
2023/03/02 01:39:54;;;;;;;14.52;11.63;;;;;;;1.69;59.28;102258.75;5047726;28;20037;-56
2023/03/02 01:42:19;;;;;;;12.20;10.95;;;;;;;1.60;60.13;102257.03;5013365;28;20370;-58
2023/03/02 01:44:56;;;;;;;13.60;12.20;;;;;;;1.53;59.75;102252.66;5015010;28;20418;-57
2023/03/02 01:47:30;;;;;;;13.00;11.35;;;;;;;1.45;60.15;102246.59;5031945;28;20035;-58
2023/03/02 01:50:03;;;;;;;17.33;11.32;;;;;;;1.41;60.17;102234.34;5032969;28;20026;-58
2023/03/02 01:52:32;;;;;;;12.82;11.38;;;;;;;1.33;60.72;102248.34;5032780;28;20551;-57
2023/03/02 01:55:03;;;;;;;11.80;10.63;;;;;;;1.32;60.50;102249.25;5032324;28;20108;-57
2023/03/02 01:57:33;;;;;;;12.68;11.48;;;;;;;1.47;60.13;102247.44;5033032;28;20412;-58
2023/03/02 02:00:07;;;;;;;12.38;11.00;;;;;;;1.36;60.65;102244.84;5032694;28;20025;-57
2023/03/02 02:02:32;;;;;;;14.32;11.38;;;;;;;1.43;59.93;102246.56;5032436;28;20050;-57
2023/03/02 02:04:58;;;;;;;15.13;11.95;;;;;;;1.52;60.56;102237.81;5032156;28;20113;-57
2023/03/02 02:07:23;;;;;;;13.30;11.55;;;;;;;1.55;60.16;102243.03;5030519;28;20033;-58
2023/03/02 02:09:51;;;;;;;12.38;11.07;;;;;;;1.38;61.13;102237.84;5031650;28;20034;-57
2023/03/02 02:12:21;;;;;;;13.80;11.23;;;;;;;1.42;60.60;102243.97;5014888;28;20049;-57
2023/03/02 02:14:48;;;;;;;14.68;12.05;;;;;;;1.43;61.12;102243.09;5030652;28;20436;-57
2023/03/02 02:17:15;;;;;;;13.50;11.75;;;;;;;1.34;61.02;102228.25;5030993;28;20033;-57
2023/03/02 02:20:06;;;;;;;13.00;11.50;;;;;;;1.31;61.66;102228.25;5032141;28;20484;-57
2023/03/02 02:22:50;;;;;;;14.55;12.23;;;;;;;1.24;61.74;102229.16;5031056;28;20035;-57
2023/03/02 02:25:29;;;;;;;13.07;11.68;;;;;;;1.28;62.01;102233.50;5031144;28;20485;-57
2023/03/02 02:27:56;;;;;;;12.80;11.13;;;;;;;1.36;61.59;102230.00;5032353;28;20098;-58
2023/03/02 02:30:23;;;;;;;14.20;12.05;;;;;;;1.23;62.22;102235.25;5031783;28;20439;-57
2023/03/02 02:32:52;;;;;;;13.73;12.32;;;;;;;1.20;62.14;102232.66;5028759;28;20142;-57
2023/03/02 02:35:23;;;;;;;13.35;11.90;;;;;;;1.24;62.62;102227.41;5031491;28;20100;-56
2023/03/02 02:37:58;;;;;;;14.20;12.07;;;;;;;1.18;62.16;102216.03;5030755;28;20523;-57
2023/03/02 02:40:47;;;;;;;14.10;11.38;;;;;;;1.31;61.72;102220.41;5031131;28;20029;-56
2023/03/02 02:43:15;;;;;;;13.30;11.52;;;;;;;1.19;62.31;102217.81;5030804;28;20030;-56
2023/03/02 02:45:40;;;;;;;14.13;12.57;;;;;;;1.22;61.62;102207.31;5031665;28;20040;-56
2023/03/02 02:48:21;;;;;;;13.35;11.95;;;;;;;1.19;62.53;102210.81;5031652;28;20029;-57
2023/03/02 02:50:48;;;;;;;14.20;12.57;;;;;;;0.98;63.41;102211.72;5015260;28;20033;-56
2023/03/02 02:53:26;;;;;;;13.47;11.97;;;;;;;0.98;63.19;102208.25;5029911;28;20030;-57
2023/03/02 02:55:56;;;;;;;17.07;11.97;;;;;;;0.94;64.02;102216.97;5031437;28;20033;-56
2023/03/02 02:58:37;;;;;;;18.05;11.77;;;;;;;1.03;63.63;102215.22;5028318;28;20489;-56
2023/03/02 03:01:04;;;;;;;16.30;14.10;;;;;;;0.95;64.53;102206.50;5027833;28;20099;-56
2023/03/02 03:03:35;;;;;;;16.63;13.95;;;;;;;1.00;64.66;102215.22;5031864;28;20029;-56
2023/03/02 03:06:15;;;;;;;18.00;13.93;;;;;;;0.96;64.46;102208.22;5031369;28;20025;-57
2023/03/02 03:08:44;;;;;;;22.38;15.10;;;;;;;0.98;65.45;102219.59;5031380;28;20080;-57
2023/03/02 03:11:18;;;;;;;19.52;14.13;;;;;;;0.99;65.30;102218.69;5029589;28;20068;-57
2023/03/02 03:13:45;;;;;;;20.73;16.48;;;;;;;0.95;65.73;102216.97;5051529;28;20032;-57
2023/03/02 03:16:14;;;;;;;20.27;16.35;;;;;;;1.02;66.50;102218.69;5049085;28;20035;-57
2023/03/02 03:18:48;;;;;;;24.35;17.63;;;;;;;1.01;66.55;102216.09;5050060;28;20045;-58
2023/03/02 03:21:13;;;;;;;23.02;17.80;;;;;;;0.75;67.02;102190.81;5046855;28;20033;-57
2023/03/02 03:23:38;;;;;;;22.80;17.85;;;;;;;0.90;67.24;102203.00;5051282;28;20533;-57
2023/03/02 03:26:05;;;;;;;21.02;17.63;;;;;;;0.95;67.70;102211.75;5047500;28;20115;-57
2023/03/02 03:28:34;;;;;;;25.83;20.83;;;;;;;1.02;68.11;102205.59;5050147;28;20468;-57
2023/03/02 03:31:02;;;;;;;30.35;21.77;;;;;;;0.97;69.07;102198.63;5032382;28;20044;-57
2023/03/02 03:33:28;;;;;;;26.90;19.37;;;;;;;1.01;69.15;102205.63;5031715;28;20530;-57
2023/03/02 03:35:53;;;;;;;29.17;21.95;;;;;;;0.78;70.03;102198.66;5029885;28;20033;-56
2023/03/02 03:38:19;;;;;;;33.10;21.08;;;;;;;0.87;69.63;102197.78;5040515;28;20128;-57
2023/03/02 03:40:44;;;;;;;29.13;22.73;;;;;;;0.93;70.33;102203.00;5037931;28;20030;-57
2023/03/02 03:43:12;;;;;;;32.60;23.83;;;;;;;0.85;70.55;102202.13;5038281;28;20017;-57
2023/03/02 03:45:40;;;;;;;35.45;24.98;;;;;;;0.82;71.09;102202.13;5038598;28;20052;-57
2023/03/02 03:48:06;;;;;;;31.90;22.63;;;;;;;0.79;71.47;102191.66;5037277;28;20032;-57
2023/03/02 03:50:31;;;;;;;34.22;25.50;;;;;;;0.80;71.43;102199.53;5051081;28;20021;-58
2023/03/02 03:52:57;;;;;;;37.10;27.63;;;;;;;0.82;72.48;102205.63;5047959;28;20094;-57
2023/03/02 03:55:27;;;;;;;37.67;25.88;;;;;;;0.90;71.91;102208.25;5041707;28;20029;-57
2023/03/02 03:57:53;;;;;;;37.40;28.38;;;;;;;0.66;73.06;102207.38;5037056;28;20032;-57
2023/03/02 04:00:19;;;;;;;35.75;25.00;;;;;;;0.63;73.54;102203.91;5031788;28;20038;-57
2023/03/02 04:02:44;;;;;;;41.60;29.07;;;;;;;0.57;73.86;102214.38;5051109;28;20053;-58
2023/03/02 04:05:10;;;;;;;40.97;28.40;;;;;;;0.59;74.91;102208.28;5039937;28;20448;-57
2023/03/02 04:07:40;;;;;;;38.43;29.10;;;;;;;0.55;74.57;102210.88;5033295;28;20515;-57
2023/03/02 04:10:08;;;;;;;36.55;23.52;;;;;;;0.60;74.42;102211.75;5048045;28;20107;-57
2023/03/02 04:12:36;;;;;;;42.67;30.80;;;;;;;0.49;75.06;102208.25;5047127;28;20025;-58
2023/03/02 04:15:03;;;;;;;38.40;26.73;;;;;;;0.51;75.35;102193.44;5047185;28;20029;-57
2023/03/02 04:17:28;;;;;;;39.93;28.43;;;;;;;0.52;75.04;102203.03;5045669;28;20021;-58
2023/03/02 04:19:57;;;;;;;44.53;31.10;;;;;;;0.48;75.86;102211.75;5028979;28;20025;-57
2023/03/02 04:22:26;;;;;;;46.97;31.97;;;;;;;0.51;75.89;102207.38;5045687;28;20031;-57
2023/03/02 04:24:51;;;;;;;47.33;31.20;;;;;;;0.45;76.25;102195.16;5044459;28;20029;-57
2023/03/02 04:27:18;;;;;;;40.97;30.00;;;;;;;0.43;77.34;102204.75;5038608;28;20080;-58
2023/03/02 04:29:43;;;;;;;48.10;29.00;;;;;;;0.46;76.40;102209.13;5026972;28;20057;-57
2023/03/02 04:32:10;;;;;;;46.27;33.17;;;;;;;0.35;77.16;102206.47;5033668;28;20046;-58
2023/03/02 04:34:40;;;;;;;45.60;29.90;;;;;;;0.30;78.02;102205.63;5033608;28;20104;-57
2023/03/02 04:37:05;;;;;;;44.85;33.40;;;;;;;0.33;77.59;102202.16;5032793;28;20057;-58
2023/03/02 04:39:31;;;;;;;45.40;32.17;;;;;;;0.29;77.60;102200.38;5034038;28;20028;-57
2023/03/02 04:41:56;;;;;;;43.97;29.53;;;;;;;0.39;77.23;102205.63;5032985;28;20032;-57
2023/03/02 04:44:22;;;;;;;46.83;32.47;;;;;;;0.22;77.23;102179.44;5032821;28;20531;-58
2023/03/02 04:46:48;;;;;;;41.33;27.33;;;;;;;0.34;76.94;102196.03;5031805;28;20132;-57
2023/03/02 04:49:18;;;;;;;43.67;32.60;;;;;;;0.26;78.18;102203.00;5031024;28;20021;-57
2023/03/02 04:51:46;;;;;;;44.10;28.90;;;;;;;0.28;78.46;102209.13;5034360;28;20393;-57
2023/03/02 04:54:22;;;;;;;45.73;30.87;;;;;;;0.21;78.22;102210.84;5033642;28;20044;-57
2023/03/02 04:56:48;;;;;;;47.27;29.03;;;;;;;0.20;78.01;102203.84;5034158;28;20036;-57
2023/03/02 04:59:18;;;;;;;44.43;32.90;;;;;;;0.13;77.66;102183.81;5049444;28;20025;-57
2023/03/02 05:01:44;;;;;;;;;;;;;;;0.29;76.39;102203.00;5042477;28;20036;-57
2023/03/02 05:04:10;;;;;;;42.80;26.53;;;;;;;0.23;76.76;102201.25;5040038;28;20314;-57
2023/03/02 05:06:35;;;;;;;43.43;27.87;;;;;;;0.17;77.31;102202.09;5033856;28;20078;-57
2023/03/02 05:09:03;;;;;;;45.60;29.53;;;;;;;0.14;77.17;102209.06;5033457;28;20099;-58
2023/03/02 05:11:29;;;;;;;43.03;29.00;;;;;;;0.20;77.76;102209.09;5033241;28;20499;-57
2023/03/02 05:13:58;;;;;;;45.03;30.97;;;;;;;0.22;77.32;102213.47;5033695;28;20033;-58
2023/03/02 05:16:25;;;;;;;44.90;30.13;;;;;;;0.25;76.96;102212.59;5031196;28;20091;-58
2023/03/02 05:18:51;;;;;;;46.47;28.20;;;;;;;0.19;77.86;102202.13;5031201;28;20045;-57
2023/03/02 05:21:18;;;;;;;43.27;28.37;;;;;;;0.21;77.57;102213.47;5033201;28;20039;-57
2023/03/02 05:23:43;;;;;;;43.67;29.27;;;;;;;0.18;77.96;102205.63;5033257;28;20029;-58
2023/03/02 05:26:10;;;;;;;43.33;29.53;;;;;;;0.18;78.21;102219.56;5028232;28;20482;-57
2023/03/02 05:28:36;;;;;;;45.97;31.63;;;;;;;0.20;77.87;102209.94;5031858;28;20087;-57
2023/03/02 05:31:04;;;;;;;43.80;27.23;;;;;;;0.25;77.69;102198.66;5032798;28;20025;-57
2023/03/02 05:33:30;;;;;;;46.10;29.67;;;;;;;0.22;77.84;102210.84;5035137;28;20045;-56
2023/03/02 05:35:56;;;;;;;46.10;29.30;;;;;;;0.18;78.13;102214.34;5031409;28;20059;-56
2023/03/02 05:38:21;;;;;;;48.83;32.37;;;;;;;0.06;77.50;102209.09;5030253;28;20400;-57
2023/03/02 05:40:47;;;;;;;48.00;29.87;;;;;;;0.10;77.85;102213.44;5029231;28;20022;-56
2023/03/02 05:43:16;;;;;;;46.73;32.43;;;;;;;0.06;78.51;102213.41;5032499;28;20025;-56
2023/03/02 05:45:41;;;;;;;50.67;32.30;;;;;;;-0.03;79.14;102209.03;5032809;28;20021;-57
2023/03/02 05:48:11;;;;;;;49.13;30.30;;;;;;;0.00;79.13;102209.06;5032979;28;20546;-57
2023/03/02 05:50:36;;;;;;;48.30;33.80;;;;;;;-0.07;79.10;102199.44;5031703;28;20031;-57
2023/03/02 05:53:02;;;;;;;50.73;31.37;;;;;;;0.02;78.69;102211.66;5033149;28;20092;-57
2023/03/02 05:55:28;;;;;;;50.83;31.40;;;;;;;0.02;78.51;102211.66;5032258;28;20025;-57
2023/03/02 05:57:53;;;;;;;51.33;31.90;;;;;;;-0.07;79.88;102208.16;5031911;28;20034;-57
2023/03/02 06:00:20;;;;;;;53.20;30.83;;;;;;;-0.10;79.30;102195.06;5032570;28;20104;-57
2023/03/02 06:02:45;;;;;;;52.17;35.57;;;;;;;-0.08;79.36;102210.78;5032329;28;20044;-57
2023/03/02 06:05:16;;;;;;;47.00;30.23;;;;;;;-0.03;79.61;102215.16;5028575;28;20017;-57
2023/03/02 06:07:43;;;;;;;53.63;32.87;;;;;;;-0.07;79.66;102200.31;5043988;28;20025;-56
2023/03/02 06:10:10;;;;;;;57.30;34.27;;;;;;;-0.02;80.78;102205.56;5052204;28;20021;-58
2023/03/02 06:12:36;;;;;;;53.43;33.90;;;;;;;-0.11;81.57;102203.78;5052723;28;20388;-57
2023/03/02 06:15:03;;;;;;;55.00;32.70;;;;;;;-0.10;81.21;102207.28;5032658;28;20021;-57
2023/03/02 06:17:28;;;;;;;59.07;37.37;;;;;;;-0.04;81.54;102207.28;5031588;28;20030;-57
2023/03/02 06:19:54;;;;;;;52.83;32.27;;;;;;;0.03;80.77;102210.78;5032317;28;20036;-57
2023/03/02 06:22:21;;;;;;;56.23;34.23;;;;;;;0.03;81.56;102211.69;5030661;28;20104;-57
2023/03/02 06:24:47;;;;;;;62.37;35.23;;;;;;;-0.04;81.43;102217.75;5031816;28;20030;-57
2023/03/02 06:27:15;;;;;;;61.47;34.43;;;;;;;-0.03;81.80;102212.53;5030776;28;20029;-57
2023/03/02 06:29:40;;;;;;;56.43;34.23;;;;;;;-0.14;82.12;102209.00;5031992;28;20029;-57
2023/03/02 06:32:09;;;;;;;63.47;40.30;;;;;;;-0.15;82.09;102217.72;5031793;28;20020;-57
2023/03/02 06:34:34;;;;;;;62.97;35.57;;;;;;;-0.13;82.16;102221.22;5031817;28;20079;-57
2023/03/02 06:37:00;;;;;;;61.80;35.63;;;;;;;-0.12;82.94;102229.94;5031906;28;20412;-56
2023/03/02 06:39:25;;;;;;;61.63;37.23;;;;;;;-0.17;83.38;102226.44;5030343;28;20117;-57
2023/03/02 06:41:50;;;;;;;56.07;34.50;;;;;;;-0.18;82.83;102232.53;5031885;28;20116;-57
2023/03/02 06:44:17;;;;;;;60.77;36.50;;;;;;;-0.14;83.34;102226.44;5031590;28;20044;-57
2023/03/02 06:46:43;;;;;;;57.27;34.33;;;;;;;-0.12;82.97;102233.44;5031375;28;20104;-57
2023/03/02 06:49:10;;;;;;;61.53;35.20;;;;;;;-0.13;82.72;102229.06;5029724;28;20032;-58
2023/03/02 06:51:35;;;;;;;63.83;36.00;;;;;;;-0.15;82.79;102220.31;5031900;28;20060;-58
2023/03/02 06:54:01;;;;;;;67.27;37.30;;;;;;;-0.07;83.84;102230.81;5030613;28;20049;-57
2023/03/02 06:56:27;;;;;;;65.40;35.83;;;;;;;-0.17;83.37;102216.84;5031401;28;20465;-57
2023/03/02 06:58:52;;;;;;;64.90;35.37;;;;;;;-0.09;82.98;102230.84;5031818;28;20352;-58
2023/03/02 07:01:18;;;;;;;61.73;37.23;;;;;;;-0.14;82.87;102223.84;5031475;28;20209;-58
2023/03/02 07:03:43;;;;;;;62.23;35.27;;;;;;;-0.07;83.53;102231.69;5030271;28;20025;-57
2023/03/02 07:06:13;;;;;;;60.17;35.83;;;;;;;-0.02;83.39;102231.72;5031472;28;20028;-57
2023/03/02 07:08:39;;;;;;;61.47;34.85;;;;;;;0.01;83.23;102230.84;5033619;28;20029;-58
2023/03/02 07:11:09;;;;;;;61.53;34.93;;;;;;;0.07;83.32;102239.59;5048599;28;20120;-57
2023/03/02 07:13:36;;;;;;;;;;;;;;;0.20;81.55;102232.63;5047634;28;20025;-57
2023/03/02 07:16:08;;;;;;;56.40;31.97;;;;;;;0.14;82.41;102238.72;5031320;28;19956;-57
2023/03/02 07:18:34;;;;;;;65.90;33.60;;;;;;;0.18;82.46;102243.09;5038062;28;20040;-57
2023/03/02 07:21:02;;;;;;;58.23;36.43;;;;;;;0.11;82.97;102233.47;5046013;28;20040;-58
2023/03/02 07:23:27;;;;;;;59.47;33.73;;;;;;;0.22;82.55;102239.63;5050575;28;20503;-57
2023/03/02 07:25:53;;;;;;;61.03;35.37;;;;;;;0.31;82.72;102238.75;5030628;28;20120;-57
2023/03/02 07:28:20;;;;;;;59.37;33.43;;;;;;;0.41;82.19;102245.78;5030003;28;20080;-57
2023/03/02 07:30:48;;;;;;;59.33;35.13;;;;;;;0.52;81.17;102245.78;5030972;28;20391;-57
2023/03/02 07:33:13;;;;;;;58.70;36.77;;;;;;;0.42;81.04;102228.31;5030812;28;20022;-57
2023/03/02 07:35:38;;;;;;;63.10;34.43;;;;;;;0.56;80.98;102250.16;5029061;28;20112;-58
2023/03/02 07:38:04;;;;;;;60.73;33.10;;;;;;;0.59;81.28;102241.41;5029806;28;20045;-57
2023/03/02 07:40:29;;;;;;;58.50;33.60;;;;;;;0.59;81.02;102231.84;5029624;28;20167;-57
2023/03/02 07:42:55;;;;;;;59.58;37.75;;;;;;;0.64;80.30;102242.28;5037533;28;20037;-57
2023/03/02 07:45:23;;;;;;;56.38;32.67;;;;;;;0.72;80.16;102245.78;5028778;28;20083;-57
2023/03/02 07:47:49;;;;;;;58.88;33.78;;;;;;;0.79;79.95;102233.56;5031569;28;20033;-57
2023/03/02 07:50:15;;;;;;;52.53;32.65;;;;;;;0.98;79.53;102239.69;5030387;28;20167;-57
2023/03/02 07:52:43;;;;;;;56.07;32.43;;;;;;;1.04;78.66;102242.28;5031185;28;20075;-57
2023/03/02 07:55:09;;;;;;;58.13;38.07;;;;;;;1.08;78.20;102242.25;5030354;28;20034;-57
2023/03/02 07:57:35;;;;;;;58.03;33.88;;;;;;;1.18;78.12;102242.25;5031057;28;20029;-55
2023/03/02 08:00:00;;;;;;;59.43;36.70;;;;;;;1.24;77.46;102235.28;5031242;28;20160;-56
2023/03/02 08:02:27;;;;;;;58.50;35.80;;;;;;;1.35;76.57;102244.00;5031290;28;20026;-56
2023/03/02 08:04:52;;;;;;;51.75;31.90;;;;;;;1.40;76.53;102245.72;5030789;28;20040;-56
2023/03/02 08:07:18;;;;;;;54.83;32.58;;;;;;;1.44;76.61;102245.72;5034117;28;20579;-57
2023/03/02 08:09:43;;;;;;;49.93;31.67;;;;;;;1.56;75.44;102244.81;5034781;28;20176;-56
2023/03/02 08:12:09;;;;;;;60.55;39.13;;;;;;;1.56;75.55;102247.44;5034640;28;20026;-56
2023/03/02 08:14:36;;;;;;;56.75;37.55;;;;;;;1.56;75.73;102242.19;5034544;28;20040;-56
2023/03/02 08:17:03;;;;;;;52.97;30.58;;;;;;;1.70;74.81;102245.59;5050265;28;20033;-56
2023/03/02 08:19:29;;;;;;;51.20;32.35;;;;;;;1.78;74.43;102246.44;5034852;28;20037;-56
2023/03/02 08:21:54;;;;;;;52.22;33.78;;;;;;;1.75;74.67;102242.97;5033513;28;20029;-56
2023/03/02 08:24:19;;;;;;;52.80;36.20;;;;;;;1.81;73.83;102240.31;5034107;28;20163;-56
2023/03/02 08:26:45;;;;;;;50.08;31.75;;;;;;;1.92;73.51;102241.16;5033745;28;20032;-56
2023/03/02 08:29:10;;;;;;;50.42;35.28;;;;;;;1.98;73.38;102251.63;5033013;28;20025;-56
2023/03/02 08:31:36;;;;;;;48.60;33.83;;;;;;;2.15;71.90;102245.44;5034402;28;20026;-56
2023/03/02 08:34:01;;;;;;;50.85;33.75;;;;;;;2.29;72.45;102251.44;5033922;28;20033;-57
2023/03/02 08:36:27;;;;;;;48.72;32.05;;;;;;;2.40;71.38;102248.75;5034293;28;20520;-56
2023/03/02 08:38:53;;;;;;;52.95;36.55;;;;;;;2.49;71.12;102241.69;5032992;28;20034;-56
2023/03/02 08:41:20;;;;;;;48.25;34.63;;;;;;;2.58;70.46;102243.38;5031978;28;20033;-57
2023/03/02 08:43:47;;;;;;;49.30;32.28;;;;;;;2.69;70.54;102248.56;5033909;28;20026;-56
2023/03/02 08:46:15;;;;;;;55.13;33.47;;;;;;;2.86;69.36;102238.78;5033636;28;20060;-57
2023/03/02 08:48:40;;;;;;;50.83;33.67;;;;;;;2.92;68.64;102245.75;5034201;28;20489;-56
2023/03/02 08:51:15;;;;;;;46.88;32.58;;;;;;;2.96;68.90;102243.06;5032360;28;20110;-56
2023/03/02 08:53:43;;;;;;;46.17;31.90;;;;;;;3.02;67.92;102243.91;5034220;28;20031;-57
2023/03/02 08:56:15;;;;;;;45.13;30.20;;;;;;;3.15;66.42;102246.41;5031757;28;20026;-57
2023/03/02 08:58:43;;;;;;;44.33;30.55;;;;;;;3.17;65.92;102249.00;5034270;28;20033;-56
2023/03/02 09:01:17;;;;;;;41.47;29.10;;;;;;;3.21;65.52;102218.28;5033773;28;20022;-56
2023/03/02 09:03:45;;;;;;;46.42;31.13;;;;;;;3.23;65.15;102241.03;5032398;28;20029;-56
2023/03/02 09:06:11;;;;;;;40.67;29.55;;;;;;;3.38;64.60;102235.66;5033756;28;20045;-56
2023/03/02 09:08:36;;;;;;;41.65;28.58;;;;;;;3.55;63.26;102235.44;5032767;28;20084;-56
2023/03/02 09:11:02;;;;;;;39.97;30.15;;;;;;;3.55;62.96;102226.69;5033103;28;20025;-56
2023/03/02 09:13:27;;;;;;;40.75;29.42;;;;;;;3.69;63.72;102224.75;5032710;28;20068;-56
2023/03/02 09:15:52;;;;;;;35.60;28.42;;;;;;;3.90;62.85;102220.13;5033857;28;20026;-57
2023/03/02 09:18:18;;;;;;;37.35;29.95;;;;;;;4.00;61.97;102220.00;5033334;28;20079;-57
2023/03/02 09:20:43;;;;;;;35.92;28.05;;;;;;;4.19;60.23;102223.22;5032442;28;20384;-56
2023/03/02 09:23:11;;;;;;;38.80;30.52;;;;;;;4.21;60.35;102224.06;5033301;28;20029;-56
2023/03/02 09:25:36;;;;;;;36.45;28.05;;;;;;;4.41;59.97;102223.78;5032690;28;20380;-57
2023/03/02 09:28:04;;;;;;;37.83;30.05;;;;;;;4.45;59.41;102221.97;5033416;28;20109;-57
2023/03/02 09:30:30;;;;;;;34.28;27.65;;;;;;;4.63;58.63;102223.44;5033222;28;20025;-57
2023/03/02 09:32:55;;;;;;;35.45;30.15;;;;;;;4.66;58.10;102220.75;5033091;28;20017;-56
2023/03/02 09:35:21;;;;;;;42.08;29.50;;;;;;;4.87;58.98;102212.47;5032595;28;20025;-57
2023/03/02 09:37:46;;;;;;;37.67;29.58;;;;;;;5.15;57.38;102220.78;5033208;28;20136;-56
2023/03/02 09:40:23;;;;;;;37.42;28.58;;;;;;;5.28;57.70;102220.56;5030880;28;20086;-56
2023/03/02 09:43:05;;;;;;;35.55;28.77;;;;;;;5.63;55.83;102231.28;5031555;28;20039;-56
2023/03/02 09:46:02;;;;;;;33.33;26.48;;;;;;;5.68;54.77;102225.91;5031372;28;20029;-57
2023/03/02 09:48:40;;;;;;;32.17;26.30;;;;;;;5.81;54.97;102216.84;5033107;28;20025;-57
2023/03/02 09:51:32;;;;;;;31.98;26.15;;;;;;;6.07;54.80;102218.94;5032985;28;20029;-56
2023/03/02 09:54:22;;;;;;;30.83;25.45;;;;;;;6.25;54.88;102222.06;5030626;28;20112;-56
2023/03/02 09:56:56;;;;;;;30.27;22.75;;;;;;;6.26;51.70;102211.47;5032956;28;20139;-57
2023/03/02 09:59:26;;;;;;;28.10;22.25;;;;;;;6.34;51.65;102209.50;5032610;28;20517;-57
2023/03/02 10:02:16;;;;;;;28.65;23.20;;;;;;;6.43;52.65;102207.56;5044607;28;20048;-57
2023/03/02 10:04:45;;;;;;;29.95;23.02;;;;;;;6.61;51.25;102207.09;5047956;28;20095;-57
2023/03/02 10:07:21;;;;;;;31.92;24.23;;;;;;;6.63;49.81;102210.59;5044862;28;20045;-57
2023/03/02 10:09:47;;;;;;;29.52;24.00;;;;;;;6.66;50.20;102202.59;5035178;28;20423;-57
2023/03/02 10:12:44;;;;;;;25.67;21.45;;;;;;;6.70;50.22;102208.66;5042683;28;20025;-57
2023/03/02 10:15:15;;;;;;;25.95;21.67;;;;;;;6.86;46.98;102209.16;5029589;28;20555;-57
2023/03/02 10:17:51;;;;;;;24.55;21.50;;;;;;;6.95;46.88;102201.84;5043294;28;20026;-56
2023/03/02 10:20:34;;;;;;;27.02;21.88;;;;;;;7.10;46.29;102199.72;5030346;28;20119;-57
2023/03/02 10:23:18;;;;;;;24.80;21.70;;;;;;;7.46;45.68;102214.56;5046876;28;20029;-57
2023/03/02 10:26:04;;;;;;;29.67;23.52;;;;;;;7.49;47.72;102218.91;5050093;28;20102;-56
2023/03/02 10:28:34;;;;;;;27.83;21.05;;;;;;;7.57;47.92;102213.41;5045587;28;20079;-56
2023/03/02 10:31:14;;;;;;;27.98;20.35;;;;;;;7.97;47.02;102203.38;5030207;28;20029;-57
2023/03/02 10:33:40;;;;;;;24.48;19.05;;;;;;;7.95;46.07;102204.34;5026791;28;20033;-56
2023/03/02 10:36:25;;;;;;;25.02;19.30;;;;;;;8.15;45.86;102207.25;5024582;28;20103;-56
2023/03/02 10:38:55;;;;;;;25.33;18.17;;;;;;;8.38;44.25;102205.63;5023773;28;20037;-56
2023/03/02 10:41:40;;;;;;;;;;;;;;;8.71;44.64;102202.84;5036032;28;20044;-56
2023/03/02 10:44:18;;;;;;;24.35;17.30;;;;;;;8.86;42.63;102205.84;5029462;28;19909;-57
2023/03/02 10:46:45;;;;;;;24.88;18.08;;;;;;;8.81;41.96;102198.97;5026718;28;20039;-57
2023/03/02 10:49:31;;;;;;;22.83;16.45;;;;;;;9.04;42.54;102200.81;5044022;28;20036;-57
2023/03/02 10:52:01;;;;;;;21.45;16.33;;;;;;;9.06;41.04;102199.84;5030598;28;20481;-57
2023/03/02 10:54:27;;;;;;;;;;;;;;;9.36;41.99;102197.03;5033063;28;20026;-57
2023/03/02 10:56:57;;;;;;;21.80;17.40;;;;;;;8.96;40.94;102201.06;5028140;28;19913;-57
2023/03/02 10:59:36;;;;;;;21.65;16.58;;;;;;;9.36;41.11;102190.84;5040223;28;20025;-57
2023/03/02 11:02:21;;;;;;;21.30;17.70;;;;;;;9.45;41.04;102198.47;5031784;28;20026;-57
2023/03/02 11:04:47;;;;;;;21.15;16.75;;;;;;;9.68;40.66;102187.00;5031116;28;20029;-57
2023/03/02 11:07:22;;;;;;;20.20;16.30;;;;;;;10.17;40.59;102182.44;5038471;28;20159;-57
2023/03/02 11:10:00;;;;;;;23.60;17.77;;;;;;;10.33;39.60;102188.06;5033041;28;20158;-57
2023/03/02 11:12:27;;;;;;;21.45;16.40;;;;;;;10.50;38.38;102182.00;5034638;28;20478;-57
2023/03/02 11:15:15;;;;;;;20.67;16.15;;;;;;;10.91;38.06;102181.16;5045730;28;20031;-57
2023/03/02 11:17:42;;;;;;;19.60;16.08;;;;;;;11.14;37.41;102173.94;5021809;28;20041;-57
2023/03/02 11:20:16;;;;;;;21.17;15.23;;;;;;;11.46;37.59;102183.16;5036840;28;20033;-57
2023/03/02 11:23:00;;;;;;;20.65;15.63;;;;;;;11.89;37.27;102183.88;5032175;28;20135;-57
2023/03/02 11:25:39;;;;;;;18.80;15.65;;;;;;;12.12;36.91;102164.13;5029800;28;20240;-57